Time;durP1;ratioP1;P1;durP2;ratioP2;P2;SDS_P1;SDS_P2;PMS_P1;PMS_P2;Temp;Humidity;BMP_temperature;BMP_pressure;BME280_temperature;BME280_humidity;BME280_pressure;Samples;Min_cycle;Max_cycle;Signal;HPM_P1;HPM_P2
2021/11/18 00:05:00;;;;;;;19.42;11.80;;;;;;;4.68;100.00;102470.44;9967335;29;20054;-83
2021/11/18 00:10:02;;;;;;;24.00;11.65;;;;;;;4.56;100.00;102474.78;9952696;29;20062;-83
2021/11/18 00:15:05;;;;;;;23.27;11.80;;;;;;;4.52;100.00;102479.69;9954321;29;20496;-83
2021/11/18 00:20:10;;;;;;;20.98;10.55;;;;;;;4.40;100.00;102488.25;9952991;29;20062;-83
2021/11/18 00:25:14;;;;;;;32.03;11.90;;;;;;;4.37;100.00;102493.16;9956670;29;20531;-83
2021/11/18 00:30:16;;;;;;;22.13;12.05;;;;;;;4.38;100.00;102503.53;9972712;29;20065;-83
2021/11/18 00:35:22;;;;;;;19.95;11.05;;;;;;;4.45;100.00;102502.25;9978935;29;20224;-83
2021/11/18 00:40:29;;;;;;;23.58;11.57;;;;;;;4.55;100.00;102504.66;9946666;29;20075;-83
2021/11/18 00:45:31;;;;;;;26.90;11.63;;;;;;;4.63;100.00;102502.59;9926104;29;20059;-82
2021/11/18 00:50:41;;;;;;;34.55;13.73;;;;;;;4.81;100.00;102506.34;9960862;29;20583;-83
2021/11/18 00:56:04;;;;;;;38.50;18.83;;;;;;;4.83;100.00;102491.06;9978546;29;20051;-83
2021/11/18 01:01:06;;;;;;;35.65;16.67;;;;;;;4.68;100.00;102489.28;9964063;29;20069;-83
2021/11/18 01:06:08;;;;;;;37.58;19.52;;;;;;;4.73;100.00;102479.34;9972588;29;20332;-82
2021/11/18 01:11:18;;;;;;;36.83;18.33;;;;;;;4.55;100.00;102494.41;9940438;29;20530;-83
2021/11/18 01:16:23;;;;;;;28.85;16.33;;;;;;;4.44;100.00;102490.25;9940458;29;20520;-83
2021/11/18 01:21:25;;;;;;;36.50;15.88;;;;;;;4.49;100.00;102488.88;9931003;29;20054;-83
2021/11/18 01:26:27;;;;;;;24.75;14.55;;;;;;;4.67;100.00;102496.88;9962622;29;20054;-83
2021/11/18 01:31:29;;;;;;;25.70;12.52;;;;;;;4.67;100.00;102510.56;9963634;29;20063;-83
2021/11/18 01:36:31;;;;;;;21.02;10.32;;;;;;;4.71;100.00;102525.38;9958953;29;20078;-83
2021/11/18 01:41:33;;;;;;;20.55;9.93;;;;;;;4.84;100.00;102539.88;9932370;29;20141;-83
2021/11/18 01:46:36;;;;;;;26.20;10.27;;;;;;;4.81;100.00;102531.09;9956190;29;20047;-83
2021/11/18 01:51:43;;;;;;;27.60;12.27;;;;;;;4.91;100.00;102531.78;9978025;29;20066;-83
2021/11/18 01:56:45;;;;;;;23.92;13.02;;;;;;;4.92;100.00;102528.44;9971715;29;20563;-83
2021/11/18 02:01:51;;;;;;;28.85;14.23;;;;;;;5.09;100.00;102538.91;9983780;29;20553;-83
2021/11/18 02:07:00;;;;;;;33.60;15.88;;;;;;;4.95;100.00;102531.22;9968561;29;20062;-83
2021/11/18 02:12:21;;;;;;;28.73;12.68;;;;;;;5.06;100.00;102529.34;9967942;29;20058;-83
2021/11/18 02:17:28;;;;;;;25.05;12.68;;;;;;;4.92;100.00;102525.00;9937175;29;20058;-83
2021/11/18 02:22:31;;;;;;;29.42;12.93;;;;;;;4.84;100.00;102536.44;9954916;29;20065;-83
2021/11/18 02:27:32;;;;;;;20.95;12.18;;;;;;;4.87;100.00;102542.63;9949916;29;20074;-83
2021/11/18 02:32:37;;;;;;;23.88;12.23;;;;;;;4.84;100.00;102529.63;9930844;29;20059;-82
2021/11/18 02:37:40;;;;;;;30.02;13.15;;;;;;;4.90;100.00;102552.22;9970823;29;20558;-83
2021/11/18 02:42:43;;;;;;;33.22;16.05;;;;;;;4.77;100.00;102542.84;9985200;29;20623;-83
2021/11/18 02:47:45;;;;;;;30.35;14.30;;;;;;;4.83;100.00;102535.56;9967240;29;20054;-83
2021/11/18 02:52:48;;;;;;;31.10;14.35;;;;;;;4.93;100.00;102529.31;9982169;29;20059;-83
2021/11/18 02:57:49;;;;;;;38.40;15.52;;;;;;;4.96;100.00;102532.97;9954818;29;20058;-83
2021/11/18 03:02:51;;;;;;;39.05;15.55;;;;;;;5.19;100.00;102510.50;9982715;29;20058;-83
2021/11/18 03:07:53;;;;;;;36.60;15.73;;;;;;;5.18;100.00;102512.16;9957287;29;20065;-83
2021/11/18 03:12:59;;;;;;;32.45;15.63;;;;;;;5.26;100.00;102526.34;9996060;29;20054;-82
2021/11/18 03:18:00;;;;;;;39.03;16.35;;;;;;;5.34;100.00;102531.09;9971270;29;20070;-83
2021/11/18 03:23:03;;;;;;;34.75;14.95;;;;;;;5.45;100.00;102523.28;9961133;29;20526;-83
2021/11/18 03:28:05;;;;;;;30.35;13.93;;;;;;;5.49;100.00;102535.50;9965433;29;20055;-82
2021/11/18 03:33:11;;;;;;;28.80;14.18;;;;;;;5.48;100.00;102536.31;9965820;29;20066;-84
2021/11/18 03:38:15;;;;;;;30.03;13.00;;;;;;;5.54;100.00;102535.78;9959899;29;20061;-83
2021/11/18 03:43:21;;;;;;;30.02;13.70;;;;;;;5.53;100.00;102541.72;9965011;29;20050;-83
2021/11/18 03:48:23;;;;;;;29.15;12.18;;;;;;;5.58;100.00;102546.34;9932176;29;20066;-84
2021/11/18 03:53:25;;;;;;;33.70;13.95;;;;;;;5.62;100.00;102551.69;9943701;29;20054;-83
2021/11/18 03:58:26;;;;;;;28.67;13.70;;;;;;;5.61;100.00;102550.78;9969747;29;20280;-83
2021/11/18 04:03:28;;;;;;;29.20;14.20;;;;;;;5.55;100.00;102553.84;9992937;29;20431;-84
2021/11/18 04:08:30;;;;;;;30.00;12.57;;;;;;;5.59;100.00;102548.13;9982267;29;20054;-83
2021/11/18 04:13:31;;;;;;;36.40;13.93;;;;;;;5.57;100.00;102544.59;9941680;29;20051;-83
2021/11/18 04:18:33;;;;;;;33.47;12.95;;;;;;;5.63;100.00;102540.63;9967991;29;20511;-83
2021/11/18 04:23:35;;;;;;;31.75;14.60;;;;;;;5.55;100.00;102535.88;9969417;29;20448;-83
2021/11/18 04:28:37;;;;;;;38.65;14.75;;;;;;;5.57;100.00;102544.59;9926643;29;20066;-82
2021/11/18 04:33:39;;;;;;;31.27;12.57;;;;;;;5.67;100.00;102537.44;9941171;29;20051;-83
2021/11/18 04:38:43;;;;;;;32.20;14.57;;;;;;;5.69;100.00;102544.47;9948856;29;20146;-83
2021/11/18 04:43:45;;;;;;;38.78;16.55;;;;;;;5.56;100.00;102537.69;9970824;29;20059;-82
2021/11/18 04:48:47;;;;;;;41.35;14.68;;;;;;;5.56;100.00;102531.66;9942028;29;20066;-83
2021/11/18 04:53:50;;;;;;;35.22;15.88;;;;;;;5.51;100.00;102533.94;9962092;29;20059;-83
2021/11/18 04:58:52;;;;;;;37.47;15.45;;;;;;;5.53;100.00;102540.03;9965485;29;20146;-83
2021/11/18 05:03:54;;;;;;;22.55;13.20;;;;;;;5.57;100.00;102531.75;9952454;29;20046;-83
2021/11/18 05:08:56;;;;;;;26.48;12.57;;;;;;;5.65;100.00;102541.59;9945570;29;20054;-84
2021/11/18 05:13:58;;;;;;;29.50;13.60;;;;;;;5.61;100.00;102544.75;9953922;29;20178;-83
2021/11/18 05:19:00;;;;;;;37.92;15.23;;;;;;;5.58;100.00;102541.22;9948974;29;20059;-83
2021/11/18 05:24:04;;;;;;;37.58;14.77;;;;;;;5.62;100.00;102537.19;9962749;29;20134;-83
2021/11/18 05:29:06;;;;;;;32.72;12.38;;;;;;;5.68;100.00;102529.84;9995523;29;20050;-83
2021/11/18 05:34:08;;;;;;;39.90;13.68;;;;;;;5.65;100.00;102536.47;9959892;29;20058;-83
2021/11/18 05:39:09;;;;;;;36.55;15.07;;;;;;;5.71;100.00;102522.31;9957750;29;20068;-83
2021/11/18 05:44:11;;;;;;;33.53;15.38;;;;;;;5.71;100.00;102534.28;9984132;29;20050;-83
2021/11/18 05:49:13;;;;;;;27.05;13.55;;;;;;;5.72;100.00;102525.78;9972074;29;20058;-83
2021/11/18 05:54:15;;;;;;;30.45;13.13;;;;;;;5.81;100.00;102528.91;9981630;29;20058;-83
2021/11/18 05:59:16;;;;;;;33.65;14.75;;;;;;;5.85;100.00;102542.06;9987335;29;20419;-84
2021/11/18 06:04:18;;;;;;;33.88;14.68;;;;;;;5.85;100.00;102526.63;9968465;29;20054;-83
2021/11/18 06:09:19;;;;;;;31.08;13.73;;;;;;;5.87;100.00;102529.28;9962711;29;20059;-83
2021/11/18 06:14:21;;;;;;;31.20;14.85;;;;;;;5.88;100.00;102528.50;9977645;29;20058;-83
2021/11/18 06:19:23;;;;;;;30.77;13.38;;;;;;;5.86;100.00;102542.94;9984083;29;20415;-83
2021/11/18 06:24:25;;;;;;;28.92;12.65;;;;;;;5.87;100.00;102560.13;9967947;29;20061;-83
2021/11/18 06:29:30;;;;;;;33.45;14.60;;;;;;;5.93;100.00;102567.34;9998644;29;20054;-83
2021/11/18 06:34:31;;;;;;;31.35;13.82;;;;;;;5.95;100.00;102569.19;9967919;29;20055;-83
2021/11/18 06:39:35;;;;;;;27.08;13.20;;;;;;;5.93;100.00;102573.38;9983515;29;20058;-83
2021/11/18 06:44:38;;;;;;;40.92;17.60;;;;;;;5.88;100.00;102569.59;9982229;29;20054;-83
2021/11/18 06:49:43;;;;;;;44.27;17.33;;;;;;;5.88;100.00;102564.44;9981648;29;20529;-83
2021/11/18 06:54:49;;;;;;;47.78;15.88;;;;;;;5.81;100.00;102552.03;9964275;29;20055;-83
2021/11/18 06:59:50;;;;;;;34.78;13.43;;;;;;;5.69;100.00;102579.53;9952589;29;20525;-83
2021/11/18 07:04:53;;;;;;;34.97;16.95;;;;;;;5.72;100.00;102595.09;9946913;29;20496;-83
2021/11/18 07:09:56;;;;;;;35.35;17.67;;;;;;;5.70;100.00;102579.59;9979846;29;20063;-84
2021/11/18 07:14:59;;;;;;;33.80;16.83;;;;;;;5.79;100.00;102589.59;9981303;29;20142;-83
2021/11/18 07:20:00;;;;;;;45.22;17.98;;;;;;;5.72;100.00;102603.69;9964750;29;20086;-84
2021/11/18 07:25:04;;;;;;;43.58;15.50;;;;;;;5.68;100.00;102599.19;9981420;29;20051;-83
2021/11/18 07:30:07;;;;;;;39.38;17.23;;;;;;;5.72;100.00;102593.41;9965675;29;20092;-83
2021/11/18 07:35:09;;;;;;;29.38;14.40;;;;;;;5.70;100.00;102602.72;9962859;29;20065;-83
2021/11/18 07:40:15;;;;;;;35.22;14.77;;;;;;;5.74;100.00;102608.94;9946549;29;20062;-83
2021/11/18 07:45:18;;;;;;;33.77;13.30;;;;;;;5.70;100.00;102615.56;9940237;29;20046;-82
2021/11/18 07:50:21;;;;;;;35.10;15.65;;;;;;;5.75;100.00;102628.69;9935566;29;20072;-83
2021/11/18 07:55:23;;;;;;;39.35;12.57;;;;;;;5.78;100.00;102634.88;9980907;29;20055;-83
2021/11/18 08:00:25;;;;;;;37.45;14.77;;;;;;;5.79;100.00;102628.97;9979379;29;20058;-83
2021/11/18 08:05:27;;;;;;;33.17;14.65;;;;;;;5.80;100.00;102628.19;9978183;29;20057;-83
2021/11/18 08:10:29;;;;;;;39.72;16.23;;;;;;;5.82;100.00;102623.13;9971983;29;20061;-83
2021/11/18 08:15:31;;;;;;;49.90;16.58;;;;;;;5.85;100.00;102605.38;9980176;29;20418;-83
2021/11/18 08:20:34;;;;;;;34.30;15.18;;;;;;;5.85;100.00;102589.97;9968084;29;20441;-83
2021/11/18 08:25:36;;;;;;;39.63;15.77;;;;;;;5.91;100.00;102594.59;9978650;29;20397;-83
2021/11/18 08:30:41;;;;;;;38.95;16.10;;;;;;;5.95;100.00;102588.84;9966509;29;20511;-83
2021/11/18 08:35:43;;;;;;;29.10;13.80;;;;;;;5.99;100.00;102607.13;9964004;29;20058;-84
2021/11/18 08:41:07;;;;;;;36.33;14.35;;;;;;;6.18;100.00;102611.72;9966317;29;20415;-83
2021/11/18 08:46:11;;;;;;;38.38;16.42;;;;;;;6.21;100.00;102606.78;9979062;29;20062;-84
2021/11/18 08:51:14;;;;;;;29.33;14.32;;;;;;;6.32;100.00;102625.41;9974957;29;20059;-83
2021/11/18 08:56:17;;;;;;;45.40;18.08;;;;;;;6.37;100.00;102627.47;9943870;29;20441;-83
2021/11/18 09:01:27;;;;;;;40.90;14.93;;;;;;;6.42;100.00;102619.16;9966252;29;20070;-83
2021/11/18 09:06:29;;;;;;;51.55;19.42;;;;;;;6.43;100.00;102615.78;9937045;29;20055;-84
2021/11/18 09:11:31;;;;;;;43.83;18.52;;;;;;;6.59;100.00;102621.06;9990253;29;20102;-83
2021/11/18 09:16:35;;;;;;;45.45;18.00;;;;;;;6.58;100.00;102619.25;9977015;29;20062;-83
2021/11/18 09:21:40;;;;;;;40.63;13.63;;;;;;;6.78;100.00;102638.47;9962733;29;20066;-83
2021/11/18 09:26:47;;;;;;;36.28;16.77;;;;;;;6.94;100.00;102648.84;9964655;29;20401;-83
2021/11/18 09:31:49;;;;;;;33.40;15.32;;;;;;;7.03;100.00;102653.63;9973853;29;20070;-83
2021/11/18 09:36:52;;;;;;;26.80;13.13;;;;;;;6.93;100.00;102659.94;9964273;29;20055;-83
2021/11/18 09:42:05;;;;;;;39.13;15.38;;;;;;;6.97;100.00;102653.28;9979026;29;20058;-84
2021/11/18 09:47:27;;;;;;;48.63;19.23;;;;;;;7.03;100.00;102667.38;9964839;29;20055;-83
2021/11/18 09:52:57;;;;;;;48.38;19.77;;;;;;;7.27;100.00;102657.66;9966340;29;20062;-83
2021/11/18 09:58:37;;;;;;;38.33;16.88;;;;;;;7.48;100.00;102657.09;9982145;29;20137;-83
2021/11/18 10:03:53;;;;;;;45.95;17.77;;;;;;;7.54;100.00;102642.84;9982782;29;20507;-84
2021/11/18 10:09:14;;;;;;;33.07;14.00;;;;;;;7.56;100.00;102646.44;9983577;29;20135;-84
2021/11/18 10:14:24;;;;;;;39.65;16.40;;;;;;;7.84;100.00;102643.69;9982808;29;20066;-84
2021/11/18 10:19:33;;;;;;;51.25;18.38;;;;;;;8.03;100.00;102640.44;9983851;29;20064;-84
2021/11/18 10:24:38;;;;;;;45.53;14.55;;;;;;;7.97;100.00;102634.94;9983574;29;20065;-83
2021/11/18 10:30:20;;;;;;;34.60;14.73;;;;;;;7.87;100.00;102642.97;9983354;29;20423;-83
2021/11/18 10:36:04;;;;;;;38.88;15.57;;;;;;;8.14;100.00;102636.72;9959868;29;20058;-84
2021/11/18 10:41:28;;;;;;;33.08;13.45;;;;;;;8.32;100.00;102630.78;9970832;29;20074;-84
2021/11/18 10:46:36;;;;;;;35.88;13.27;;;;;;;8.71;100.00;102617.41;9966426;29;20059;-85
2021/11/18 10:51:51;;;;;;;29.50;12.82;;;;;;;8.59;100.00;102611.63;9996341;29;20062;-83
2021/11/18 10:57:02;;;;;;;38.53;13.80;;;;;;;8.84;100.00;102600.84;9980828;29;20074;-83
2021/11/18 11:02:19;;;;;;;28.65;11.40;;;;;;;9.25;100.00;102594.28;9981763;29;20122;-85
2021/11/18 11:07:42;;;;;;;34.13;12.35;;;;;;;9.55;100.00;102589.69;9943547;29;20089;-85
2021/11/18 11:12:58;;;;;;;37.17;12.75;;;;;;;10.01;98.90;102594.41;9977101;29;20068;-84
2021/11/18 11:18:15;;;;;;;29.75;11.73;;;;;;;10.27;96.51;102577.50;9946899;29;20063;-84
2021/11/18 11:23:56;;;;;;;26.42;9.73;;;;;;;9.95;97.74;102588.94;9980958;29;20054;-85
2021/11/18 11:29:28;;;;;;;13.13;5.20;;;;;;;9.96;95.98;102577.78;9974712;29;20496;-86
2021/11/18 11:34:58;;;;;;;31.80;11.02;;;;;;;10.03;96.45;102553.97;9980421;29;20070;-86
2021/11/18 11:40:13;;;;;;;16.75;8.57;;;;;;;9.70;96.98;102561.06;9968430;29;20054;-84
2021/11/18 11:45:15;;;;;;;19.88;9.75;;;;;;;9.97;97.38;102556.28;9960691;29;20050;-85
2021/11/18 11:50:29;;;;;;;26.55;9.93;;;;;;;10.07;96.69;102550.72;9936800;29;20471;-84
2021/11/18 11:55:43;;;;;;;26.05;11.73;;;;;;;9.86;97.37;102542.88;9964795;29;20062;-85
2021/11/18 12:01:15;;;;;;;28.85;9.18;;;;;;;9.79;98.76;102541.72;9952450;29;20062;-85
2021/11/18 12:06:24;;;;;;;21.77;8.40;;;;;;;9.85;96.46;102528.19;9925565;29;20129;-88
2021/11/18 12:11:45;;;;;;;28.10;9.70;;;;;;;10.02;96.81;102532.41;9969233;29;20081;-84
2021/11/18 12:16:56;;;;;;;23.52;9.93;;;;;;;10.14;95.83;102523.41;9952175;29;20051;-83
2021/11/18 12:21:59;;;;;;;24.90;10.07;;;;;;;9.90;97.49;102518.06;9978993;29;20507;-83
2021/11/18 12:27:22;;;;;;;30.80;9.90;;;;;;;9.97;98.32;102531.31;9979803;29;20230;-84
2021/11/18 12:32:33;;;;;;;29.13;8.23;;;;;;;9.99;96.83;102524.53;9951098;29;20077;-84
2021/11/18 12:37:37;;;;;;;24.98;7.15;;;;;;;10.05;95.43;102529.09;9967027;29;20055;-86
2021/11/18 12:43:03;;;;;;;27.70;8.20;;;;;;;9.98;96.29;102527.94;9966738;29;20838;-85
2021/11/18 12:48:28;;;;;;;28.35;8.57;;;;;;;10.10;94.93;102517.25;9977316;29;20058;-85
2021/11/18 12:53:34;;;;;;;36.55;7.55;;;;;;;10.19;92.83;102516.75;9962624;29;20080;-87
2021/11/18 12:58:49;;;;;;;12.00;3.92;;;;;;;10.26;91.87;102521.38;9954901;29;20050;-85
2021/11/18 13:03:51;;;;;;;8.93;2.83;;;;;;;10.24;91.27;102535.97;9949717;29;20055;-86
2021/11/18 13:08:54;;;;;;;14.45;5.50;;;;;;;10.00;92.29;102526.28;9968245;29;20051;-85
2021/11/18 13:14:07;;;;;;;24.55;9.98;;;;;;;9.94;94.98;102523.44;9977696;29;20412;-85
2021/11/18 13:19:28;;;;;;;19.52;6.15;;;;;;;9.95;94.09;102522.59;9965227;29;20133;-85
2021/11/18 13:24:33;;;;;;;28.45;7.53;;;;;;;9.97;94.50;102507.16;9966182;29;20116;-84
2021/11/18 13:29:47;;;;;;;10.10;4.82;;;;;;;10.03;94.29;102502.25;9977298;29;20061;-87
2021/11/18 13:35:17;;;;;;;30.58;7.63;;;;;;;9.96;95.80;102500.22;9969502;29;20061;-84
2021/11/18 13:40:26;;;;;;;34.22;10.55;;;;;;;9.97;95.29;102515.78;9971714;29;20054;-85
2021/11/18 13:45:35;;;;;;;28.52;9.73;;;;;;;9.93;96.85;102519.09;9971388;29;20146;-85
2021/11/18 13:50:48;;;;;;;24.52;8.90;;;;;;;9.93;96.97;102511.31;9967368;29;20065;-84
2021/11/18 13:56:05;;;;;;;28.77;8.88;;;;;;;9.88;98.24;102519.69;9949503;29;20141;-84
2021/11/18 14:01:14;;;;;;;23.33;9.10;;;;;;;9.98;96.73;102512.41;9968542;29;20073;-85
2021/11/18 14:06:25;;;;;;;30.73;8.15;;;;;;;9.92;97.77;102506.94;9948281;29;20061;-81
2021/11/18 14:11:33;;;;;;;16.17;6.75;;;;;;;10.00;97.19;102509.91;9979491;29;20062;-81
2021/11/18 14:16:47;;;;;;;19.98;6.78;;;;;;;10.00;96.52;102505.59;9970130;29;20469;-81
2021/11/18 14:22:12;;;;;;;19.20;6.18;;;;;;;9.99;97.36;102500.38;9977812;29;20496;-80
2021/11/18 14:27:16;;;;;;;18.63;5.03;;;;;;;10.01;96.61;102506.47;9948967;29;20423;-80
2021/11/18 14:32:31;;;;;;;20.05;5.32;;;;;;;10.02;96.83;102516.88;9952461;29;20104;-80
2021/11/18 14:37:42;;;;;;;20.35;6.65;;;;;;;9.97;98.33;102531.31;9972552;29;20065;-80
2021/11/18 14:43:03;;;;;;;19.88;5.72;;;;;;;9.99;98.46;102537.44;9956813;29;20058;-81
2021/11/18 14:48:16;;;;;;;16.75;6.13;;;;;;;10.03;98.59;102533.28;9981627;29;20063;-81
2021/11/18 14:53:54;;;;;;;21.38;5.88;;;;;;;10.02;98.68;102529.81;9982710;29;20094;-80
2021/11/18 14:59:01;;;;;;;13.35;3.90;;;;;;;10.01;98.68;102524.59;9981347;29;20059;-79
2021/11/18 15:04:07;;;;;;;17.90;6.40;;;;;;;10.01;98.73;102533.22;9969138;29;20145;-81
2021/11/18 15:09:18;;;;;;;20.08;6.00;;;;;;;10.00;99.40;102522.81;9980578;29;20058;-80
2021/11/18 15:14:20;;;;;;;20.73;6.85;;;;;;;9.95;100.00;102521.72;9962066;29;20401;-80
2021/11/18 15:19:23;;;;;;;20.40;6.53;;;;;;;9.88;100.00;102535.22;9976505;29;20050;-81
2021/11/18 15:24:29;;;;;;;22.65;5.80;;;;;;;9.85;100.00;102548.84;9965033;29;20064;-80
2021/11/18 15:29:31;;;;;;;20.77;7.10;;;;;;;9.83;100.00;102546.22;9980125;29;20058;-80
2021/11/18 15:34:33;;;;;;;20.23;5.82;;;;;;;9.81;100.00;102553.03;9994750;29;20062;-80
2021/11/18 15:39:35;;;;;;;22.75;6.10;;;;;;;9.81;100.00;102542.69;9968101;29;20050;-80
2021/11/18 15:44:37;;;;;;;19.70;5.35;;;;;;;9.73;100.00;102535.38;9979850;29;20072;-80
2021/11/18 15:49:39;;;;;;;27.80;7.05;;;;;;;9.76;100.00;102531.25;9980536;29;20495;-80
2021/11/18 15:54:41;;;;;;;20.30;6.97;;;;;;;9.64;100.00;102528.09;9980197;29;20062;-80
2021/11/18 15:59:45;;;;;;;17.30;6.07;;;;;;;9.65;100.00;102529.88;9955044;29;20050;-80
2021/11/18 16:04:48;;;;;;;14.07;5.85;;;;;;;9.64;100.00;102520.31;9960275;29;20097;-80
2021/11/18 16:09:55;;;;;;;16.15;5.28;;;;;;;9.67;100.00;102528.25;9941867;29;20500;-81
2021/11/18 16:15:07;;;;;;;18.83;6.20;;;;;;;9.65;100.00;102532.47;9993196;29;20060;-80
2021/11/18 16:20:16;;;;;;;20.98;7.55;;;;;;;9.72;100.00;102523.28;9968506;29;20134;-81
2021/11/18 16:25:22;;;;;;;18.83;6.43;;;;;;;9.68;100.00;102523.94;9973358;29;20089;-80
2021/11/18 16:30:32;;;;;;;22.10;7.07;;;;;;;9.67;100.00;102529.94;9951381;29;20054;-81
2021/11/18 16:35:39;;;;;;;21.38;6.07;;;;;;;9.68;100.00;102534.28;9963831;29;20047;-80
2021/11/18 16:40:45;;;;;;;15.45;6.22;;;;;;;9.71;100.00;102542.19;9954233;29;20062;-79
2021/11/18 16:45:47;;;;;;;23.23;8.13;;;;;;;9.68;100.00;102530.00;9962217;29;20058;-80
2021/11/18 16:51:01;;;;;;;18.35;5.30;;;;;;;9.78;100.00;102537.38;9962338;29;20050;-80
2021/11/18 16:56:06;;;;;;;18.27;6.13;;;;;;;9.75;100.00;102538.91;9965164;29;20499;-81
2021/11/18 17:01:14;;;;;;;22.92;6.57;;;;;;;9.75;100.00;102534.63;9977792;29;20050;-80
2021/11/18 17:06:17;;;;;;;17.08;5.20;;;;;;;9.71;100.00;102545.66;9979466;29;20058;-80
2021/11/18 17:11:24;;;;;;;23.60;6.32;;;;;;;9.77;100.00;102556.28;9971541;29;20065;-81
2021/11/18 17:16:27;;;;;;;14.52;5.97;;;;;;;9.76;100.00;102562.25;9985759;29;20058;-79
2021/11/18 17:21:39;;;;;;;26.65;7.15;;;;;;;9.72;100.00;102577.56;9980173;29;20058;-81
2021/11/18 17:26:43;;;;;;;22.20;7.32;;;;;;;9.72;100.00;102583.59;9983557;29;20108;-81
2021/11/18 17:31:46;;;;;;;20.52;6.32;;;;;;;9.68;100.00;102584.25;9948973;29;20069;-80
2021/11/18 17:36:52;;;;;;;19.10;6.60;;;;;;;9.74;100.00;102587.13;9956626;29;20508;-80
2021/11/18 17:41:57;;;;;;;24.95;8.10;;;;;;;9.73;100.00;102597.41;9932408;29;20059;-80
2021/11/18 17:47:06;;;;;;;18.13;7.05;;;;;;;9.80;100.00;102597.75;9969124;29;20100;-80
2021/11/18 17:52:12;;;;;;;22.75;8.23;;;;;;;9.80;100.00;102595.16;9943652;29;20066;-80
2021/11/18 17:57:18;;;;;;;19.00;6.18;;;;;;;9.76;100.00;102598.44;9960444;29;20472;-80
2021/11/18 18:02:28;;;;;;;16.20;6.65;;;;;;;9.74;100.00;102607.81;9966112;29;20097;-80
2021/11/18 18:07:30;;;;;;;24.02;7.20;;;;;;;9.76;100.00;102605.31;9976891;29;20061;-81
2021/11/18 18:12:32;;;;;;;24.10;7.88;;;;;;;9.75;100.00;102617.31;9983833;29;20084;-81
2021/11/18 18:17:38;;;;;;;21.25;6.55;;;;;;;9.80;100.00;102621.00;9966200;29;20058;-81
2021/11/18 18:22:39;;;;;;;22.10;8.38;;;;;;;9.76;100.00;102616.53;9946946;29;20058;-80
2021/11/18 18:27:43;;;;;;;18.70;7.55;;;;;;;9.76;100.00;102618.25;9959078;29;20112;-81
2021/11/18 18:32:45;;;;;;;21.73;7.45;;;;;;;9.80;100.00;102618.44;9980327;29;20054;-80
2021/11/18 18:37:47;;;;;;;19.30;7.63;;;;;;;9.83;100.00;102621.19;9996372;29;20055;-81
2021/11/18 18:42:49;;;;;;;25.30;8.18;;;;;;;9.87;100.00;102623.88;9980447;29;20587;-79
2021/11/18 18:47:54;;;;;;;19.90;8.70;;;;;;;9.88;100.00;102630.84;9978577;29;20054;-81
2021/11/18 18:52:56;;;;;;;20.83;7.85;;;;;;;9.87;100.00;102626.47;9956649;29;20054;-80
2021/11/18 18:57:58;;;;;;;16.30;8.45;;;;;;;9.94;100.00;102628.53;9967368;29;20058;-80
2021/11/18 19:03:00;;;;;;;16.88;8.57;;;;;;;9.96;100.00;102630.38;9952036;29;20543;-80
2021/11/18 19:08:03;;;;;;;19.42;8.43;;;;;;;9.94;100.00;102628.53;9960271;29;20081;-80
2021/11/18 19:13:04;;;;;;;16.50;8.52;;;;;;;9.88;100.00;102629.16;9966425;29;20058;-80
2021/11/18 19:18:08;;;;;;;20.30;7.90;;;;;;;9.90;100.00;102636.97;9981332;29;20051;-80
2021/11/18 19:23:13;;;;;;;21.60;9.98;;;;;;;9.93;100.00;102635.41;9981381;29;20050;-80
2021/11/18 19:28:38;;;;;;;24.98;10.13;;;;;;;9.93;100.00;102637.13;9965140;29;20397;-80
2021/11/18 19:33:42;;;;;;;27.05;9.27;;;;;;;9.97;100.00;102637.31;9966166;29;20062;-80
2021/11/18 19:38:44;;;;;;;20.73;10.65;;;;;;;9.91;100.00;102633.56;9960891;29;20058;-80
2021/11/18 19:43:54;;;;;;;26.55;10.25;;;;;;;9.95;100.00;102631.19;9992746;29;20133;-81
2021/11/18 19:48:57;;;;;;;27.30;12.17;;;;;;;9.97;100.00;102629.56;9980963;29;20061;-80
2021/11/18 19:54:08;;;;;;;32.17;9.98;;;;;;;9.96;100.00;102645.88;10673683;27;20517;-79
2021/11/18 19:59:11;;;;;;;24.30;8.88;;;;;;;10.03;100.00;102645.34;10636733;27;20518;-80
2021/11/18 20:04:13;;;;;;;20.40;9.82;;;;;;;9.98;100.00;102633.94;10657903;27;20058;-80
2021/11/18 20:09:17;;;;;;;24.55;8.80;;;;;;;10.02;100.00;102647.88;10636473;27;20047;-80
2021/11/18 20:14:29;;;;;;;25.65;10.60;;;;;;;10.01;100.00;102656.44;10652176;27;20047;-80
2021/11/18 20:19:32;;;;;;;25.60;12.18;;;;;;;9.98;100.00;102667.56;10650870;27;20469;-79
2021/11/18 20:24:34;;;;;;;25.25;11.65;;;;;;;10.05;100.00;102663.53;10637867;27;20047;-80
2021/11/18 20:29:38;;;;;;;26.23;11.32;;;;;;;10.01;100.00;102662.50;10624085;27;20097;-81
2021/11/18 20:34:45;;;;;;;26.60;11.60;;;;;;;10.01;100.00;102670.25;10636538;27;20046;-81
2021/11/18 20:39:48;;;;;;;25.83;11.20;;;;;;;9.95;100.00;102693.25;10629118;27;20043;-81
2021/11/18 20:44:50;;;;;;;25.63;11.25;;;;;;;10.00;100.00;102694.34;10636154;27;20046;-79
2021/11/18 20:49:59;;;;;;;21.08;10.40;;;;;;;10.05;100.00;102700.63;10630246;27;20050;-80
2021/11/18 20:55:01;;;;;;;25.08;10.75;;;;;;;9.97;100.00;102696.78;10568299;28;20054;-80
2021/11/18 21:00:17;;;;;;;24.05;12.20;;;;;;;10.00;100.00;102698.63;10569613;28;20051;-80
2021/11/18 21:05:31;;;;;;;22.77;10.95;;;;;;;10.01;100.00;102695.22;10555806;28;20050;-80
2021/11/18 21:10:35;;;;;;;33.05;11.93;;;;;;;10.01;100.00;102700.41;10550586;28;20048;-80
2021/11/18 21:15:37;;;;;;;33.10;12.60;;;;;;;9.96;100.00;102699.28;10554773;28;20101;-79
2021/11/18 21:20:39;;;;;;;36.03;13.75;;;;;;;10.00;100.00;102711.56;10582289;28;20525;-79
2021/11/18 21:25:47;;;;;;;28.08;13.77;;;;;;;10.00;100.00;102707.28;10540436;28;20048;-79
2021/11/18 21:30:59;;;;;;;31.02;14.07;;;;;;;10.00;100.00;102689.19;10561173;28;20503;-79
2021/11/18 21:36:01;;;;;;;41.33;15.55;;;;;;;9.91;100.00;102693.03;10569156;28;20135;-80
2021/11/18 21:41:03;;;;;;;34.88;15.77;;;;;;;9.92;100.00;102710.28;10551668;28;20052;-80
2021/11/18 21:46:06;;;;;;;39.30;16.48;;;;;;;9.93;100.00;102701.75;10551652;28;20060;-82
2021/11/18 21:51:21;;;;;;;30.98;16.58;;;;;;;9.99;100.00;102696.88;10570752;28;20065;-79
2021/11/18 21:56:26;;;;;;;35.17;16.05;;;;;;;9.95;100.00;102698.41;10604479;27;20133;-80
2021/11/18 22:01:33;;;;;;;36.47;16.77;;;;;;;9.96;100.00;102714.81;10581613;28;20055;-79
2021/11/18 22:06:39;;;;;;;24.20;14.05;;;;;;;9.98;100.00;102714.09;10576382;27;20417;-79
2021/11/18 22:11:44;;;;;;;31.00;14.80;;;;;;;9.96;100.00;102715.69;10580575;28;20495;-80
2021/11/18 22:16:47;;;;;;;23.05;14.80;;;;;;;9.95;100.00;102708.75;10605063;27;20454;-80
2021/11/18 22:21:50;;;;;;;36.20;16.92;;;;;;;9.94;100.00;102703.53;10587860;27;20043;-80
2021/11/18 22:26:53;;;;;;;39.70;16.08;;;;;;;9.94;100.00;102699.22;10581691;27;20072;-80
2021/11/18 22:31:57;;;;;;;39.15;18.25;;;;;;;9.94;100.00;102691.47;10604859;27;20054;-80
2021/11/18 22:37:07;;;;;;;34.17;20.10;;;;;;;9.98;100.00;102682.16;10583395;27;20066;-80
2021/11/18 22:42:09;;;;;;;24.52;12.82;;;;;;;9.99;100.00;102683.94;10589794;27;20097;-81
2021/11/18 22:47:11;;;;;;;40.17;18.00;;;;;;;10.01;100.00;102690.94;10605089;27;20073;-78
2021/11/18 22:52:14;;;;;;;30.98;16.88;;;;;;;10.04;100.00;102696.28;10578921;28;20087;-79
2021/11/18 22:57:18;;;;;;;24.80;15.93;;;;;;;10.05;100.00;102679.94;10579423;27;20131;-79
2021/11/18 23:02:27;;;;;;;30.50;16.48;;;;;;;10.07;100.00;102677.41;10592565;27;20126;-78
2021/11/18 23:07:29;;;;;;;37.95;17.55;;;;;;;10.07;100.00;102672.25;10580106;28;20047;-78
2021/11/18 23:12:31;;;;;;;28.48;16.55;;;;;;;10.11;100.00;102683.63;10583115;27;20267;-79
2021/11/18 23:17:33;;;;;;;30.45;16.88;;;;;;;10.05;100.00;102681.66;10591656;27;20066;-77
2021/11/18 23:22:38;;;;;;;31.70;15.40;;;;;;;10.00;100.00;102684.00;10593868;27;20514;-78